createdAt,value
2017-09-27T00:01:09.851Z,93.80
2017-09-27T00:03:36.756Z,82.57
2017-09-27T00:06:02.945Z,88.13
2017-09-27T00:08:29.134Z,92.27
2017-09-27T00:10:55.347Z,98.23
2017-09-27T00:13:21.508Z,95.10
2017-09-27T00:15:47.679Z,98.27
2017-09-27T00:18:13.888Z,96.50
2017-09-27T00:20:40.063Z,88.80
2017-09-27T00:23:06.214Z,87.17
2017-09-27T00:25:32.394Z,88.10
2017-09-27T00:27:59.328Z,97.73
2017-09-27T00:30:26.283Z,81.67
2017-09-27T00:32:52.449Z,85.87
2017-09-27T00:35:18.633Z,76.83
2017-09-27T00:37:44.831Z,77.97
2017-09-27T00:40:10.999Z,96.93
2017-09-27T00:42:37.204Z,86.27
2017-09-27T00:45:03.400Z,92.67
2017-09-27T00:47:30.335Z,86.63
2017-09-27T00:49:57.285Z,94.47
2017-09-27T00:52:23.478Z,91.87
2017-09-27T00:54:49.688Z,91.60
2017-09-27T00:57:16.632Z,86.63
2017-09-27T00:59:42.803Z,84.20
2017-09-27T01:02:08.980Z,94.67
2017-09-27T01:04:35.162Z,87.50
2017-09-27T01:07:02.207Z,77.70
2017-09-27T01:09:29.127Z,92.20
2017-09-27T01:11:55.304Z,79.03
2017-09-27T01:14:21.476Z,88.80
2017-09-27T01:16:47.675Z,92.67
2017-09-27T01:19:13.859Z,81.43
2017-09-27T01:21:40.072Z,94.67
2017-09-27T01:24:21.240Z,81.97
2017-09-27T01:26:47.433Z,83.60
2017-09-27T01:29:13.615Z,89.53
2017-09-27T01:31:39.809Z,97.63
2017-09-27T01:34:06.014Z,92.60
2017-09-27T01:36:32.216Z,89.60
2017-09-27T01:38:58.378Z,95.87
2017-09-27T01:41:24.579Z,81.57
2017-09-27T01:43:50.795Z,87.77
2017-09-27T01:46:16.983Z,92.47
2017-09-27T01:48:43.193Z,79.77
2017-09-27T01:51:09.375Z,87.13
2017-09-27T01:53:35.577Z,85.47
2017-09-27T01:56:02.567Z,99.47
2017-09-27T01:58:29.505Z,99.50
2017-09-27T02:00:55.707Z,79.80
2017-09-27T02:03:22.659Z,92.60
2017-09-27T02:05:48.863Z,89.87
2017-09-27T02:08:15.827Z,84.80
2017-09-27T02:10:42.727Z,91.50
2017-09-27T02:13:08.899Z,83.47
2017-09-27T02:15:35.072Z,83.60
2017-09-27T02:18:01.252Z,77.67
2017-09-27T02:20:27.399Z,86.00
2017-09-27T02:22:53.579Z,80.90
2017-09-27T02:25:19.741Z,85.33
2017-09-27T02:27:46.684Z,93.23
2017-09-27T02:30:13.621Z,71.07
2017-09-27T02:32:40.537Z,83.60
2017-09-27T02:35:07.437Z,92.80
2017-09-27T02:37:33.612Z,84.33
2017-09-27T02:39:59.778Z,80.20
2017-09-27T02:42:25.952Z,74.10
2017-09-27T02:44:52.112Z,86.27
2017-09-27T02:47:18.269Z,81.93
2017-09-27T02:49:44.497Z,88.90
2017-09-27T02:52:10.696Z,91.30
2017-09-27T02:54:36.875Z,92.00
2017-09-27T02:57:03.031Z,82.20
2017-09-27T02:59:29.216Z,83.27
2017-09-27T03:01:56.133Z,81.50
2017-09-27T03:04:22.329Z,83.00
2017-09-27T03:06:48.504Z,88.07
2017-09-27T03:09:14.672Z,80.70
2017-09-27T03:11:40.827Z,79.03
2017-09-27T03:14:07.003Z,79.07
2017-09-27T03:16:33.895Z,91.90
2017-09-27T03:19:00.847Z,85.27
2017-09-27T03:21:27.007Z,76.73
2017-09-27T03:23:53.214Z,80.20
2017-09-27T03:26:19.452Z,83.13
2017-09-27T03:28:45.637Z,84.40
2017-09-27T03:31:13.474Z,79.47
2017-09-27T03:33:40.376Z,77.63
2017-09-27T03:36:06.584Z,79.43
2017-09-27T03:38:32.741Z,90.00
2017-09-27T03:40:59.647Z,87.90
2017-09-27T03:43:25.810Z,77.40
2017-09-27T03:45:59.032Z,75.37
2017-09-27T03:48:25.203Z,73.53
2017-09-27T03:50:51.375Z,79.03
2017-09-27T03:53:18.271Z,86.80
2017-09-27T03:55:44.467Z,77.40
2017-09-27T03:58:10.635Z,92.53
2017-09-27T04:00:37.619Z,85.20
2017-09-27T04:03:03.779Z,85.17
2017-09-27T04:05:29.940Z,84.73
2017-09-27T04:07:56.136Z,96.30
2017-09-27T04:10:22.293Z,88.83
2017-09-27T05:34:45.375Z,105.20
2017-09-27T05:37:12.300Z,110.33
2017-09-27T05:39:39.247Z,120.00
2017-09-27T05:42:06.161Z,105.23
2017-09-27T05:44:33.061Z,108.77
2017-09-27T05:46:59.239Z,108.93
2017-09-27T05:49:25.469Z,116.87
2017-09-27T05:51:51.646Z,109.97
2017-09-27T05:54:18.568Z,90.50
2017-09-27T05:56:45.512Z,103.17
2017-09-27T05:59:12.467Z,103.00
2017-09-27T06:01:38.615Z,98.97
2017-09-27T06:04:04.790Z,108.80
2017-09-27T06:06:30.967Z,92.87
2017-09-27T06:08:57.896Z,88.17
2017-09-27T06:11:24.805Z,82.20
2017-09-27T06:13:50.979Z,87.67
2017-09-27T06:16:17.131Z,94.80
2017-09-27T06:18:43.305Z,100.40
2017-09-27T06:21:09.468Z,100.20
2017-09-27T06:23:35.660Z,92.00
2017-09-27T06:26:01.815Z,107.77
2017-09-27T06:28:28.955Z,103.23
2017-09-27T06:30:55.897Z,88.53
2017-09-27T06:33:22.080Z,97.20
2017-09-27T06:35:48.255Z,85.60
2017-09-27T06:38:14.535Z,87.37
2017-09-27T06:40:40.655Z,87.30
2017-09-27T06:43:06.836Z,88.00
2017-09-27T06:45:33.012Z,89.40
2017-09-27T06:47:59.248Z,93.23
2017-09-27T06:50:25.423Z,86.43
2017-09-27T06:52:51.591Z,95.47
2017-09-27T06:55:17.763Z,102.30
2017-09-27T06:57:43.920Z,96.90
2017-09-27T07:00:10.101Z,91.27
2017-09-27T07:02:36.263Z,80.30
2017-09-27T07:05:03.192Z,76.73
2017-09-27T07:07:30.089Z,92.63
2017-09-27T07:09:56.246Z,86.17
2017-09-27T07:12:23.159Z,93.57
2017-09-27T07:14:49.309Z,82.93
2017-09-27T07:17:15.504Z,85.20
2017-09-27T07:19:42.404Z,77.00
2017-09-27T07:22:08.588Z,93.60
2017-09-27T07:24:34.750Z,82.40
2017-09-27T07:27:01.712Z,88.47
2017-09-27T07:29:27.904Z,82.17
2017-09-27T07:31:54.855Z,78.43
2017-09-27T07:34:21.035Z,76.77
2017-09-27T07:36:47.222Z,91.93
2017-09-27T07:39:13.375Z,86.20
2017-09-27T07:41:40.305Z,84.40
2017-09-27T07:44:07.216Z,90.67
2017-09-27T07:46:33.388Z,82.77
2017-09-27T07:48:59.531Z,74.33
2017-09-27T07:51:25.722Z,77.17
2017-09-27T07:53:51.889Z,76.00
2017-09-27T07:56:18.796Z,75.13
2017-09-27T07:58:44.985Z,77.23
2017-09-27T08:01:11.157Z,75.53
2017-09-27T08:03:38.083Z,76.63
2017-09-27T08:06:05.016Z,69.27
2017-09-27T08:08:31.912Z,73.00
2017-09-27T08:10:58.080Z,75.10
2017-09-27T08:13:24.264Z,66.37
2017-09-27T08:15:51.163Z,67.30
2017-09-27T08:18:17.330Z,65.90
2017-09-27T08:20:43.525Z,71.00
2017-09-27T08:23:10.422Z,69.80
2017-09-27T08:25:36.575Z,69.00
2017-09-27T08:28:03.503Z,68.30
2017-09-27T08:30:30.463Z,62.63
2017-09-27T08:32:56.637Z,73.60
2017-09-27T08:35:22.787Z,69.10
2017-09-27T08:37:48.991Z,61.33
2017-09-27T08:40:15.156Z,71.47
2017-09-27T08:42:41.348Z,69.23
2017-09-27T08:45:07.501Z,72.13
2017-09-27T08:47:33.699Z,73.80
2017-09-27T08:50:00.588Z,75.30
2017-09-27T08:52:26.740Z,82.33
2017-09-27T08:54:54.412Z,83.00
2017-09-27T08:57:21.335Z,88.23
2017-09-27T08:59:47.488Z,83.67
2017-09-27T09:02:13.688Z,81.70
2017-09-27T09:04:40.577Z,76.17
2017-09-27T09:07:06.726Z,74.93
2017-09-27T09:09:33.649Z,67.43
2017-09-27T09:11:59.801Z,74.83
2017-09-27T09:14:25.980Z,73.03
2017-09-27T09:16:52.881Z,76.27
2017-09-27T09:19:19.064Z,76.17
2017-09-27T09:21:45.225Z,78.57
2017-09-27T09:24:11.391Z,77.83
2017-09-27T09:26:37.552Z,66.90
2017-09-27T09:29:03.768Z,70.27
2017-09-27T09:31:29.920Z,63.43
2017-09-27T09:33:56.103Z,74.67
2017-09-27T09:36:22.262Z,72.93
2017-09-27T09:38:48.444Z,64.67
2017-09-27T09:41:15.356Z,67.40
2017-09-27T09:43:41.533Z,66.37
2017-09-27T09:46:07.684Z,67.60
2017-09-27T09:48:33.873Z,61.40
2017-09-27T09:51:00.053Z,71.37
2017-09-27T09:53:26.233Z,69.53
2017-09-27T09:55:53.155Z,59.97
2017-09-27T09:58:19.340Z,65.73
2017-09-27T10:00:45.492Z,65.30
2017-09-27T10:03:12.414Z,62.53
2017-09-27T10:05:38.577Z,60.87
2017-09-27T10:08:04.767Z,66.00
2017-09-27T10:10:30.944Z,53.40
2017-09-27T10:12:57.107Z,53.03
2017-09-27T10:15:23.292Z,59.63
2017-09-27T10:17:50.183Z,54.10
2017-09-27T10:20:16.352Z,57.83
2017-09-27T10:22:43.259Z,60.40
2017-09-27T10:25:09.437Z,56.80
2017-09-27T10:27:36.337Z,68.40
2017-09-27T10:30:02.562Z,56.93
2017-09-27T10:32:28.780Z,57.43
2017-09-27T10:34:54.962Z,62.53
2017-09-27T10:37:21.919Z,66.80
2017-09-27T10:39:48.092Z,60.40
2017-09-27T10:42:14.240Z,55.90
2017-09-27T10:44:40.410Z,64.87
2017-09-27T10:47:06.564Z,56.17
2017-09-27T10:49:32.757Z,54.80
2017-09-27T10:51:59.639Z,54.70
2017-09-27T10:54:25.868Z,62.13
2017-09-27T10:56:52.020Z,59.73
2017-09-27T10:59:18.943Z,58.90
2017-09-27T11:01:45.828Z,56.87
2017-09-27T11:04:12.000Z,63.30
2017-09-27T11:06:38.928Z,63.53
2017-09-27T11:09:05.828Z,59.00
2017-09-27T11:11:32.014Z,63.90
2017-09-27T11:13:58.188Z,66.57
2017-09-27T11:16:25.109Z,54.43
2017-09-27T11:18:52.009Z,61.70
2017-09-27T11:21:18.184Z,67.77
2017-09-27T11:23:44.376Z,64.70
2017-09-27T11:26:11.285Z,63.57
2017-09-27T11:28:37.456Z,64.07
2017-09-27T11:31:03.632Z,59.50
2017-09-27T11:33:30.532Z,58.47
2017-09-27T11:35:56.704Z,64.37
2017-09-27T11:38:22.860Z,57.40
2017-09-27T11:40:49.040Z,62.43
2017-09-27T11:43:15.224Z,58.27
2017-09-27T11:45:41.401Z,63.63
2017-09-27T11:48:07.552Z,59.67
2017-09-27T11:50:40.783Z,58.33
2017-09-27T11:53:06.934Z,55.53
2017-09-27T11:55:33.868Z,58.47
2017-09-27T11:58:00.759Z,49.67
2017-09-27T12:00:26.971Z,49.07
2017-09-27T12:02:53.169Z,51.60
2017-09-27T12:05:19.332Z,51.83
2017-09-27T12:07:46.257Z,54.23
2017-09-27T12:10:12.525Z,53.90
2017-09-27T12:12:38.695Z,58.60
2017-09-27T12:15:05.601Z,54.37
2017-09-27T12:17:31.776Z,54.43
2017-09-27T12:19:58.079Z,52.07
2017-09-27T12:22:24.248Z,53.80
2017-09-27T12:24:50.408Z,56.53
2017-09-27T12:27:16.567Z,57.10
2017-09-27T12:29:42.760Z,53.20
2017-09-27T12:32:08.957Z,52.80
2017-09-27T12:34:35.107Z,53.37
2017-09-27T12:37:01.894Z,44.87
2017-09-27T12:39:28.289Z,44.63
2017-09-27T12:41:55.180Z,45.30
2017-09-27T12:44:21.348Z,44.83
2017-09-27T12:46:47.499Z,48.87
2017-09-27T12:49:13.664Z,46.07
2017-09-27T12:51:40.581Z,51.20
2017-09-27T12:54:07.517Z,46.93
2017-09-27T12:56:34.663Z,44.37
2017-09-27T12:59:01.623Z,42.30
2017-09-27T13:01:27.791Z,46.10
2017-09-27T13:03:53.962Z,69.20
2017-09-27T13:06:20.139Z,41.63
2017-09-27T13:08:46.308Z,48.37
2017-09-27T13:11:12.488Z,40.53
2017-09-27T13:13:38.651Z,48.50
2017-09-27T13:16:04.825Z,46.67
2017-09-27T13:18:30.989Z,41.10
2017-09-27T13:20:57.909Z,39.87
2017-09-27T13:23:24.071Z,43.77
2017-09-27T13:25:50.254Z,43.73
2017-09-27T13:28:17.164Z,41.37
2017-09-27T13:30:43.770Z,43.90
2017-09-27T13:33:09.930Z,44.30
2017-09-27T13:35:36.842Z,41.83
2017-09-27T13:38:03.058Z,44.17
2017-09-27T13:40:29.228Z,42.03
2017-09-27T13:42:55.378Z,43.57
2017-09-27T13:45:21.575Z,43.90
2017-09-27T13:47:47.727Z,42.20
2017-09-27T13:50:14.677Z,41.67
2017-09-27T13:52:40.836Z,45.37
2017-09-27T13:55:07.032Z,43.20
2017-09-27T13:57:33.197Z,40.07
2017-09-27T14:00:00.115Z,40.57
2017-09-27T14:02:26.274Z,38.37
2017-09-27T14:04:52.523Z,39.23
2017-09-27T14:07:18.691Z,44.43
2017-09-27T14:09:44.864Z,50.57
2017-09-27T14:12:11.102Z,45.00
2017-09-27T14:14:37.282Z,45.10
2017-09-27T14:17:03.484Z,43.83
2017-09-27T14:19:29.641Z,47.40
2017-09-27T14:21:56.553Z,44.00
2017-09-27T14:24:23.066Z,46.47
2017-09-27T14:26:49.224Z,41.70
2017-09-27T14:29:16.149Z,48.63
2017-09-27T14:31:42.320Z,40.00
2017-09-27T14:34:08.475Z,40.97
2017-09-27T14:36:34.653Z,51.03
2017-09-27T14:39:00.831Z,43.87
2017-09-27T14:41:27.044Z,46.17
2017-09-27T14:43:53.207Z,42.90
2017-09-27T14:46:20.119Z,43.33
2017-09-27T14:48:47.759Z,46.10
2017-09-27T14:51:13.935Z,44.87
2017-09-27T14:53:40.116Z,40.73
2017-09-27T14:56:06.300Z,50.33
2017-09-27T14:58:32.450Z,46.87
2017-09-27T15:00:59.355Z,40.20
2017-09-27T15:03:25.514Z,44.93
2017-09-27T15:05:51.701Z,43.73
2017-09-27T15:08:18.601Z,37.53
2017-09-27T15:10:44.775Z,41.40
2017-09-27T15:13:10.932Z,43.87
2017-09-27T15:15:37.132Z,43.10
2017-09-27T15:18:03.342Z,39.97
2017-09-27T15:20:29.550Z,46.53
2017-09-27T15:22:55.728Z,49.30
2017-09-27T15:25:22.669Z,40.67
2017-09-27T15:27:48.824Z,44.77
2017-09-27T15:30:15.133Z,45.03
2017-09-27T15:32:41.301Z,40.73
2017-09-27T15:35:08.224Z,45.67
2017-09-27T15:37:35.139Z,50.10
2017-09-27T15:40:01.821Z,53.53
2017-09-27T15:42:28.543Z,46.80
2017-09-27T15:44:55.166Z,46.13
2017-09-27T15:47:22.033Z,48.57
2017-09-27T15:49:49.087Z,53.50
2017-09-27T15:52:15.672Z,43.37
2017-09-27T15:54:42.407Z,44.93
2017-09-27T15:57:09.668Z,49.47
2017-09-27T15:59:36.407Z,44.47
2017-09-27T16:02:03.904Z,40.17
2017-09-27T16:04:30.810Z,50.73
2017-09-27T16:06:57.712Z,46.33
2017-09-27T16:09:24.930Z,51.57
2017-09-27T16:11:52.297Z,51.10
2017-09-27T16:14:19.926Z,45.60
2017-09-27T16:16:46.711Z,46.93
2017-09-27T16:19:13.388Z,53.60
2017-09-27T16:21:40.632Z,43.43
2017-09-27T16:24:06.868Z,46.70
2017-09-27T16:26:33.016Z,49.90
2017-09-27T16:28:59.210Z,51.93
2017-09-27T16:31:25.409Z,49.67
2017-09-27T16:33:52.331Z,53.37
2017-09-27T16:36:19.713Z,59.77
2017-09-27T16:38:45.930Z,58.57
2017-09-27T16:41:12.096Z,62.37
2017-09-27T16:43:39.265Z,55.63
2017-09-27T16:46:06.311Z,59.03
2017-09-27T16:48:32.459Z,65.00
2017-09-27T16:50:58.647Z,63.80
2017-09-27T16:53:24.820Z,59.00
2017-09-27T16:55:51.728Z,61.20
2017-09-27T16:58:17.880Z,65.93
2017-09-27T17:00:44.062Z,57.03
2017-09-27T17:03:10.236Z,63.47
2017-09-27T17:05:36.391Z,62.40
2017-09-27T17:08:02.557Z,64.97
2017-09-27T17:10:28.752Z,60.80
2017-09-27T17:12:54.933Z,59.00
2017-09-27T17:15:21.821Z,53.90
2017-09-27T17:17:48.004Z,65.73
2017-09-27T17:20:14.154Z,63.40
2017-09-27T17:22:41.105Z,64.40
2017-09-27T17:25:07.281Z,60.33
2017-09-27T17:27:33.847Z,60.73
2017-09-27T17:30:00.035Z,64.93
2017-09-27T17:32:26.233Z,66.70
2017-09-27T17:34:52.412Z,64.43
2017-09-27T17:37:19.316Z,63.97
2017-09-27T17:39:45.495Z,73.50
2017-09-27T17:42:11.636Z,60.30
2017-09-27T17:44:38.156Z,69.23
2017-09-27T17:47:04.331Z,63.87
2017-09-27T17:49:30.500Z,65.67
2017-09-27T17:51:56.652Z,59.37
2017-09-27T17:54:22.866Z,62.50
2017-09-27T17:56:49.014Z,68.50
2017-09-27T17:59:15.194Z,74.70
2017-09-27T18:01:48.243Z,69.90
2017-09-27T18:04:21.207Z,74.10
2017-09-27T18:06:54.245Z,70.10
2017-09-27T18:09:26.416Z,67.10
2017-09-27T18:11:58.784Z,78.77
2017-09-27T18:14:39.819Z,75.43
2017-09-27T18:17:07.779Z,72.83
2017-09-27T18:19:33.956Z,66.63
2017-09-27T18:22:00.124Z,72.70
2017-09-27T18:24:26.344Z,73.67
2017-09-27T18:26:52.515Z,73.13
2017-09-27T18:29:18.733Z,78.63
2017-09-27T18:31:44.883Z,67.50
2017-09-27T18:34:11.055Z,77.93
2017-09-27T18:36:37.199Z,73.43
2017-09-27T18:39:03.397Z,71.47
2017-09-27T18:41:30.287Z,90.00
2017-09-27T18:43:57.223Z,102.13
2017-09-27T18:46:23.380Z,90.20
2017-09-27T18:48:50.300Z,74.23
2017-09-27T18:51:16.469Z,72.73
2017-09-27T18:53:43.442Z,81.23
2017-09-27T18:56:09.607Z,95.37
2017-09-27T18:58:36.491Z,84.27
2017-09-27T19:01:02.709Z,84.30
2017-09-27T19:03:28.856Z,83.20
2017-09-27T19:05:55.061Z,79.00
2017-09-27T19:08:21.217Z,78.43
2017-09-27T19:10:47.458Z,71.53
2017-09-27T19:13:13.621Z,76.83
2017-09-27T19:15:40.566Z,87.90
2017-09-27T19:18:06.735Z,69.07
2017-09-27T19:20:32.929Z,63.23
2017-09-27T19:22:59.135Z,65.80
2017-09-27T19:25:25.322Z,59.27
2017-09-27T19:27:51.548Z,67.17
2017-09-27T19:30:17.809Z,80.17
2017-09-27T19:32:43.971Z,79.30
2017-09-27T19:35:10.143Z,74.97
2017-09-27T19:37:36.305Z,77.20
2017-09-27T19:40:02.520Z,68.70
2017-09-27T19:42:28.684Z,122.07
2017-09-27T19:44:54.880Z,141.10
2017-09-27T19:47:21.773Z,300.97
2017-09-27T19:49:47.931Z,133.97
2017-09-27T19:52:14.109Z,139.30
2017-09-27T19:54:40.264Z,91.97
2017-09-27T19:57:06.440Z,82.00
2017-09-27T19:59:32.610Z,70.57
2017-09-27T20:01:58.800Z,101.07
2017-09-27T20:04:24.949Z,68.37
2017-09-27T20:06:52.018Z,76.20
2017-09-27T20:09:18.201Z,63.93
2017-09-27T20:11:45.140Z,91.60
2017-09-27T20:14:12.053Z,82.83
2017-09-27T20:16:38.992Z,77.77
2017-09-27T20:19:05.928Z,67.70
2017-09-27T20:21:32.149Z,53.37
2017-09-27T20:23:58.382Z,56.33
2017-09-27T20:26:24.604Z,60.80
2017-09-27T20:28:50.813Z,62.00
2017-09-27T20:31:17.073Z,77.90
2017-09-27T20:33:43.265Z,54.00
2017-09-27T20:36:09.479Z,69.57
2017-09-27T20:38:36.401Z,62.50
2017-09-27T20:41:02.613Z,80.77
2017-09-27T20:43:28.960Z,88.20
2017-09-27T20:45:55.551Z,79.20
2017-09-27T20:48:21.757Z,56.67
2017-09-27T20:50:48.168Z,59.47
2017-09-27T20:53:15.090Z,77.87
2017-09-27T20:55:41.385Z,51.50
2017-09-27T20:58:07.641Z,76.30
2017-09-27T21:00:33.875Z,70.07
2017-09-27T21:03:00.061Z,70.23
2017-09-27T21:05:26.264Z,71.77
2017-09-27T21:07:53.208Z,86.57
2017-09-27T21:10:20.225Z,84.20
2017-09-27T21:12:46.465Z,105.07
2017-09-27T21:15:12.691Z,89.93
2017-09-27T21:17:38.910Z,102.27
2017-09-27T21:20:05.107Z,103.00
2017-09-27T21:22:31.305Z,95.20
2017-09-27T21:24:57.509Z,99.07
2017-09-27T21:27:24.437Z,97.87
2017-09-27T21:29:50.665Z,103.30
2017-09-27T21:32:16.958Z,105.47
2017-09-27T21:34:43.176Z,105.83
2017-09-27T21:37:09.365Z,96.43
2017-09-27T21:39:35.571Z,102.83
2017-09-27T21:42:01.790Z,109.87
2017-09-27T21:44:28.034Z,107.43
2017-09-27T21:46:54.342Z,103.37
2017-09-27T21:49:20.581Z,96.17
2017-09-27T21:51:46.796Z,91.77
2017-09-27T21:54:12.989Z,93.87
2017-09-27T21:56:39.296Z,95.37
2017-09-27T21:59:06.254Z,97.90
2017-09-27T22:01:33.203Z,100.07
2017-09-27T22:04:00.117Z,103.57
2017-09-27T22:06:26.403Z,94.47
2017-09-27T22:08:52.749Z,99.10
2017-09-27T22:11:19.056Z,106.10
2017-09-27T22:13:45.281Z,109.63
2017-09-27T22:16:11.576Z,118.10
2017-09-27T22:18:38.566Z,125.77
2017-09-27T22:21:04.825Z,107.13
2017-09-27T22:23:31.187Z,111.40
2017-09-27T22:25:58.212Z,116.43
2017-09-27T22:28:24.464Z,112.17
2017-09-27T22:30:51.464Z,112.90
2017-09-27T22:33:17.721Z,112.63
2017-09-27T22:35:43.999Z,109.30
2017-09-27T22:38:10.233Z,105.00
2017-09-27T22:40:36.508Z,102.00
2017-09-27T22:43:02.739Z,101.83
2017-09-27T22:45:29.016Z,88.90
2017-09-27T22:47:55.265Z,85.70
2017-09-27T22:50:21.524Z,94.13
2017-09-27T22:52:47.795Z,99.90
2017-09-27T22:55:14.067Z,87.80
2017-09-27T22:57:40.430Z,104.70
2017-09-27T23:00:14.476Z,89.30
2017-09-27T23:02:40.716Z,98.40
2017-09-27T23:05:06.981Z,97.87
2017-09-27T23:07:33.219Z,106.60
2017-09-27T23:10:00.233Z,101.80
2017-09-27T23:12:26.491Z,75.73
2017-09-27T23:14:53.493Z,87.80
2017-09-27T23:17:19.750Z,82.90
2017-09-27T23:19:46.005Z,76.27
2017-09-27T23:22:13.027Z,82.53
2017-09-27T23:24:39.354Z,67.07
2017-09-27T23:27:05.641Z,74.67
2017-09-27T23:29:31.912Z,85.23
2017-09-27T23:31:58.146Z,82.57
2017-09-27T23:34:24.426Z,86.30
2017-09-27T23:36:50.718Z,107.10
2017-09-27T23:39:17.742Z,97.33
2017-09-27T23:41:43.987Z,100.80
2017-09-27T23:44:10.223Z,88.27
2017-09-27T23:46:37.231Z,91.33
2017-09-27T23:49:03.499Z,106.60
2017-09-27T23:51:30.576Z,135.67
2017-09-27T23:53:56.769Z,118.23
2017-09-27T23:56:22.974Z,151.00
2017-09-27T23:58:49.158Z,135.50
